Terminal Aerodrome Forecast
Issued by NWS Blacksburg, VA

Current Version | Previous Version | Graphics & Text | Print | Product List | Glossary On
Versions: 1 2 3 4 5 6 7 8 9 10 11 12 13 14 15 16 17 18 19 20 21 22 23 24 25 26 27 28 29 30 31 32 33 34 35 36 37 38 39 40 41 42 43 44 45 46 47 48 49
000
FTUS41 KRNK 220046 AAA
TAFBLF
TAF AMD
KBLF 220046Z 2201/2224 34004KT P6SM BKN015
      TEMPO 2201/2204 SCT020
     FM220700 33007KT P6SM BKN025
     FM221200 32008G18KT P6SM SCT040
     FM222100 33008KT P6SM FEW250=

USA.gov is the U.S. government's official web portal to all federal, state and local government web resources and services.